Pointe Noire, Canada
Current Conditions -  °F | °C
As of 6:00 AM on Sunday 23 Nov 2014 (Local Time) from CYZV Reporting Station
Broken Clouds Broken Clouds  
Wind Chill: 16°   Ceiling: 4000
Heat Index: 27°   Visibility: 15mi
Dew Point: 19°   Wind: 12mph
Humidity: 74%   Direction: 310°NW
Pressure: 29.68"   Gusts: 21mph
Location:  50.15°N, 66.43°W
Report Text: CYZV 231100Z 31010G18KT 15SM BKN040 M03/M07 A2968 RMK SC5 SLP055
Loading
Personal Weather Stations






























Interactive Weather Map New forecast layout! Learn more

10-Day Weather Forecast

Advertisements
Track Severe Weather on mobile